Urban, Pennsylvania
Current Conditions -  °F | °C
As of 2:53 PM on Tuesday 25 Nov 2014 (Local Time) from KSEG Reporting Station
Clear Clear  
Wind Chill: 52°   Ceiling: Unl
Heat Index: 52°   Visibility: 10mi
Dew Point: 29°   Wind: 8mph
Humidity: 41%   Direction: 270°W
Pressure: 30.01"   Gusts: NA
Location:  40.6872°N, 76.7831°W
Report Text: KSEG 251953Z AUTO 27007KT 10SM CLR 11/M02 A3001 RMK AO2 SLP162 T01111017
Loading
Personal Weather Stations






























Interactive Weather Map New forecast layout! Learn more

10-Day Weather Forecast

Advertisements
Track Severe Weather on mobile